createdAt,value
2018-08-06T00:00:09.323Z,70.24
2018-08-06T00:01:09.320Z,69.63
2018-08-06T00:02:09.315Z,70.01
2018-08-06T00:03:09.326Z,70.21
2018-08-06T00:04:09.312Z,70.40
2018-08-06T00:05:09.307Z,70.21
2018-08-06T00:06:09.308Z,70.30
2018-08-06T00:07:09.310Z,70.11
2018-08-06T00:08:09.302Z,70.11
2018-08-06T00:09:09.305Z,71.08
2018-08-06T00:10:09.300Z,70.78
2018-08-06T00:11:09.304Z,70.50
2018-08-06T00:12:09.307Z,70.40
2018-08-06T00:13:09.298Z,70.40
2018-08-06T00:14:09.293Z,70.50
2018-08-06T00:15:09.293Z,70.59
2018-08-06T00:16:09.292Z,70.88
2018-08-06T00:17:09.286Z,71.08
2018-08-06T00:18:09.284Z,71.17
2018-08-06T00:19:09.283Z,71.26
2018-08-06T00:20:09.282Z,70.98
2018-08-06T00:21:09.276Z,71.08
2018-08-06T00:22:09.289Z,70.65
2018-08-06T00:23:09.283Z,70.75
2018-08-06T00:24:09.269Z,71.65
2018-08-06T00:25:09.266Z,71.26
2018-08-06T00:26:09.266Z,71.61
2018-08-06T00:27:09.263Z,71.33
2018-08-06T00:28:09.264Z,71.71
2018-08-06T00:29:09.259Z,71.81
2018-08-06T00:30:09.252Z,71.61
2018-08-06T00:31:09.253Z,71.81
2018-08-06T00:32:09.251Z,71.61
2018-08-06T00:33:09.252Z,71.81
2018-08-06T00:34:09.266Z,71.81
2018-08-06T00:35:09.264Z,72.09
2018-08-06T00:36:09.245Z,71.91
2018-08-06T00:37:09.244Z,71.91
2018-08-06T00:38:09.265Z,71.71
2018-08-06T00:39:09.235Z,72.00
2018-08-06T00:40:09.231Z,72.29
2018-08-06T00:41:09.241Z,72.29
2018-08-06T00:42:09.227Z,71.91
2018-08-06T00:43:09.227Z,72.77
2018-08-06T00:44:09.227Z,72.77
2018-08-06T00:45:09.227Z,72.48
2018-08-06T00:46:09.232Z,72.29
2018-08-06T00:47:09.219Z,72.67
2018-08-06T00:48:09.213Z,72.38
2018-08-06T00:49:09.216Z,72.58
2018-08-06T00:50:09.213Z,72.67
2018-08-06T00:51:09.210Z,72.77
2018-08-06T00:52:09.209Z,72.38
2018-08-06T00:53:09.202Z,72.58
2018-08-06T00:54:09.200Z,73.25
2018-08-06T00:55:09.198Z,73.15
2018-08-06T00:56:09.198Z,73.25
2018-08-06T00:57:09.199Z,73.06
2018-08-06T00:58:09.193Z,73.41
2018-08-06T00:59:09.192Z,72.83
2018-08-06T01:00:09.191Z,72.73
2018-08-06T01:01:09.186Z,72.86
2018-08-06T01:02:09.190Z,73.44
2018-08-06T01:03:09.181Z,73.63
2018-08-06T01:04:09.181Z,73.60
2018-08-06T01:05:09.174Z,73.50
2018-08-06T01:06:09.183Z,73.60
2018-08-06T01:07:09.169Z,73.50
2018-08-06T01:08:09.170Z,73.31
2018-08-06T01:09:09.163Z,73.50
2018-08-06T01:10:09.161Z,73.69
2018-08-06T01:11:09.161Z,73.41
2018-08-06T01:12:09.178Z,73.31
2018-08-06T01:13:09.154Z,73.60
2018-08-06T01:14:09.152Z,73.60
2018-08-06T01:15:09.157Z,73.41
2018-08-06T01:16:09.148Z,73.60
2018-08-06T01:17:09.155Z,73.60
2018-08-06T01:18:09.141Z,73.69
2018-08-06T01:19:09.149Z,73.60
2018-08-06T01:20:09.139Z,73.50
2018-08-06T01:21:09.137Z,73.41
2018-08-06T01:22:09.134Z,73.41
2018-08-06T01:23:09.130Z,73.50
2018-08-06T01:24:09.128Z,73.69
2018-08-06T01:25:09.129Z,73.79
2018-08-06T01:26:09.122Z,73.88
2018-08-06T01:27:09.125Z,73.98
2018-08-06T01:28:09.122Z,73.98
2018-08-06T01:29:09.116Z,74.17
2018-08-06T01:30:09.148Z,74.08
2018-08-06T01:31:09.111Z,74.27
2018-08-06T01:32:09.112Z,74.33
2018-08-06T01:33:09.108Z,74.33
2018-08-06T01:34:09.106Z,74.27
2018-08-06T01:35:09.106Z,74.23
2018-08-06T01:36:09.100Z,74.27
2018-08-06T01:37:09.095Z,74.37
2018-08-06T01:38:09.095Z,74.37
2018-08-06T01:39:09.093Z,74.43
2018-08-06T01:40:09.093Z,74.13
2018-08-06T01:41:09.087Z,74.37
2018-08-06T01:42:09.086Z,74.55
2018-08-06T01:43:09.082Z,74.23
2018-08-06T01:44:09.079Z,74.55
2018-08-06T01:45:09.079Z,74.43
2018-08-06T01:46:09.075Z,74.37
2018-08-06T01:47:09.075Z,74.17
2018-08-06T01:48:09.074Z,74.43
2018-08-06T01:49:09.072Z,74.33
2018-08-06T01:50:09.063Z,74.62
2018-08-06T01:51:09.063Z,74.33
2018-08-06T01:52:09.063Z,74.23
2018-08-06T01:53:09.059Z,74.33
2018-08-06T01:54:09.056Z,74.81
2018-08-06T01:55:09.054Z,75.10
2018-08-06T01:56:09.056Z,74.90
2018-08-06T01:57:09.046Z,75.29
2018-08-06T01:58:09.046Z,75.00
2018-08-06T01:59:09.042Z,75.10
2018-08-06T02:00:09.037Z,75.00
2018-08-06T02:01:09.036Z,75.29
2018-08-06T02:02:09.035Z,75.29
2018-08-06T02:03:09.034Z,75.20
2018-08-06T02:04:09.035Z,75.00
2018-08-06T02:05:09.024Z,75.29
2018-08-06T02:06:09.028Z,75.29
2018-08-06T02:07:09.055Z,74.90
2018-08-06T02:08:09.022Z,75.00
2018-08-06T02:09:09.027Z,74.71
2018-08-06T02:10:09.017Z,75.10
2018-08-06T02:11:09.014Z,75.00
2018-08-06T02:12:09.009Z,74.62
2018-08-06T02:13:09.006Z,75.29
2018-08-06T02:14:09.022Z,75.29
2018-08-06T02:15:09.013Z,75.00
2018-08-06T02:16:09.013Z,75.10
2018-08-06T02:17:08.997Z,75.20
2018-08-06T02:18:08.993Z,75.20
2018-08-06T02:19:09.010Z,75.10
2018-08-06T02:20:08.990Z,75.20
2018-08-06T02:21:09.011Z,75.10
2018-08-06T02:22:09.013Z,75.00
2018-08-06T02:23:08.982Z,75.10
2018-08-06T02:24:08.981Z,75.00
2018-08-06T02:25:08.974Z,75.38
2018-08-06T02:26:08.978Z,75.77
2018-08-06T02:27:08.964Z,75.35
2018-08-06T02:28:08.964Z,75.15
2018-08-06T02:29:08.964Z,75.63
2018-08-06T02:30:08.963Z,75.54
2018-08-06T02:31:08.965Z,75.92
2018-08-06T02:32:08.964Z,75.63
2018-08-06T02:33:08.951Z,76.21
2018-08-06T02:34:08.949Z,75.92
2018-08-06T02:35:08.944Z,75.35
2018-08-06T02:36:08.949Z,75.63
2018-08-06T02:37:08.947Z,76.40
2018-08-06T02:38:08.942Z,76.07
2018-08-06T02:39:08.939Z,76.27
2018-08-06T02:40:08.933Z,76.46
2018-08-06T02:41:08.930Z,76.75
2018-08-06T02:42:08.925Z,76.75
2018-08-06T02:43:08.922Z,76.37
2018-08-06T02:44:08.925Z,77.04
2018-08-06T02:45:08.921Z,77.23
2018-08-06T02:46:08.921Z,77.13
2018-08-06T02:47:08.917Z,77.04
2018-08-06T02:48:08.909Z,77.13
2018-08-06T02:49:08.907Z,76.94
2018-08-06T02:50:08.921Z,77.42
2018-08-06T02:51:08.904Z,77.33
2018-08-06T02:52:08.904Z,77.61
2018-08-06T02:53:08.899Z,77.71
2018-08-06T02:54:08.894Z,77.33
2018-08-06T02:55:08.891Z,77.42
2018-08-06T02:56:08.895Z,77.61
2018-08-06T02:57:08.892Z,77.51
2018-08-06T02:58:08.882Z,77.42
2018-08-06T02:59:08.882Z,77.61
2018-08-06T03:00:08.900Z,78.00
2018-08-06T03:01:08.878Z,78.00
2018-08-06T03:02:08.872Z,77.90
2018-08-06T03:03:08.866Z,77.80
2018-08-06T03:04:08.863Z,78.00
2018-08-06T03:05:08.860Z,77.90
2018-08-06T03:06:08.861Z,77.90
2018-08-06T03:07:08.857Z,77.80
2018-08-06T03:08:08.855Z,78.00
2018-08-06T03:09:08.852Z,77.71
2018-08-06T03:10:08.888Z,77.80
2018-08-06T03:11:08.845Z,78.47
2018-08-06T03:12:08.847Z,77.42
2018-08-06T03:13:08.841Z,78.00
2018-08-06T03:14:08.836Z,78.00
2018-08-06T03:15:08.840Z,78.00
2018-08-06T03:16:08.855Z,77.42
2018-08-06T03:17:08.823Z,78.19
2018-08-06T03:18:08.826Z,77.61
2018-08-06T03:19:08.821Z,78.19
2018-08-06T03:20:08.832Z,77.90
2018-08-06T03:21:08.815Z,78.00
2018-08-06T03:22:08.813Z,77.90
2018-08-06T03:23:08.809Z,78.47
2018-08-06T03:24:08.803Z,78.19
2018-08-06T03:25:08.798Z,77.76
2018-08-06T03:26:08.796Z,77.48
2018-08-06T03:27:08.798Z,77.90
2018-08-06T03:28:08.789Z,77.90
2018-08-06T03:29:08.795Z,76.46
2018-08-06T03:30:08.789Z,77.61
2018-08-06T03:31:08.786Z,77.42
2018-08-06T03:32:08.787Z,76.75
2018-08-06T03:33:08.774Z,77.51
2018-08-06T03:34:08.770Z,76.65
2018-08-06T03:35:08.775Z,76.84
2018-08-06T03:36:08.774Z,76.37
2018-08-06T03:37:08.762Z,77.13
2018-08-06T03:38:08.768Z,77.71
2018-08-06T03:39:08.761Z,78.19
2018-08-06T03:40:08.770Z,77.76
2018-08-06T03:41:08.754Z,78.15
2018-08-06T03:42:08.749Z,78.53
2018-08-06T03:43:08.750Z,78.25
2018-08-06T03:44:08.749Z,77.76
2018-08-06T03:45:08.743Z,78.53
2018-08-06T03:46:08.737Z,78.25
2018-08-06T03:47:08.735Z,78.34
2018-08-06T03:48:08.728Z,79.11
2018-08-06T03:49:08.730Z,79.11
2018-08-06T03:50:08.731Z,78.82
2018-08-06T03:51:08.724Z,79.49
2018-08-06T03:52:08.721Z,79.21
2018-08-06T03:53:08.714Z,79.39
2018-08-06T03:54:08.712Z,79.49
2018-08-06T03:55:08.709Z,79.78
2018-08-06T03:56:08.706Z,79.39
2018-08-06T03:57:08.708Z,79.78
2018-08-06T03:58:08.701Z,80.22
2018-08-06T03:59:08.698Z,80.22
2018-08-06T04:00:08.696Z,80.12
2018-08-06T04:01:08.691Z,79.93
2018-08-06T04:02:08.685Z,79.93
2018-08-06T04:03:08.687Z,80.03
2018-08-06T04:04:08.684Z,79.64
2018-08-06T04:05:08.679Z,80.12
2018-08-06T04:06:08.679Z,80.07
2018-08-06T04:07:08.671Z,80.12
2018-08-06T04:08:08.668Z,79.68
2018-08-06T04:09:08.671Z,79.78
2018-08-06T04:10:08.665Z,79.97
2018-08-06T04:11:08.661Z,80.03
2018-08-06T04:12:08.656Z,80.32
2018-08-06T04:13:08.655Z,80.32
2018-08-06T04:14:08.649Z,80.32
2018-08-06T04:15:08.646Z,80.41
2018-08-06T04:16:08.644Z,80.32
2018-08-06T04:17:08.643Z,80.22
2018-08-06T04:18:08.637Z,80.32
2018-08-06T04:19:08.644Z,80.32
2018-08-06T04:20:08.636Z,80.32
2018-08-06T04:21:08.627Z,80.41
2018-08-06T04:22:08.623Z,80.32
2018-08-06T04:23:08.620Z,80.32
2018-08-06T04:24:08.624Z,80.74
2018-08-06T04:25:08.617Z,80.51
2018-08-06T04:26:08.613Z,80.45
2018-08-06T04:27:08.613Z,80.51
2018-08-06T04:28:08.604Z,80.32
2018-08-06T04:29:08.601Z,80.41
2018-08-06T04:30:08.617Z,80.32
2018-08-06T04:31:08.598Z,80.41
2018-08-06T04:32:08.597Z,80.79
2018-08-06T04:33:08.680Z,80.51
2018-08-06T04:34:08.591Z,80.89
2018-08-06T04:35:08.601Z,80.51
2018-08-06T04:36:08.602Z,80.55
2018-08-06T04:37:08.578Z,80.83
2018-08-06T04:38:08.576Z,80.89
2018-08-06T04:39:08.572Z,81.02
2018-08-06T04:40:08.576Z,80.70
2018-08-06T04:41:08.567Z,80.89
2018-08-06T04:42:08.568Z,80.70
2018-08-06T04:43:08.556Z,81.37
2018-08-06T04:44:08.555Z,80.79
2018-08-06T04:45:08.558Z,80.70
2018-08-06T04:46:08.619Z,80.79
2018-08-06T04:47:08.546Z,80.60
2018-08-06T04:48:08.543Z,80.79
2018-08-06T04:49:08.536Z,80.70
2018-08-06T04:50:08.534Z,80.79
2018-08-06T04:51:08.529Z,81.56
2018-08-06T04:52:08.530Z,80.79
2018-08-06T04:53:08.527Z,80.70
2018-08-06T04:54:08.522Z,80.79
2018-08-06T04:55:08.519Z,80.60
2018-08-06T04:56:08.522Z,80.32
2018-08-06T04:57:08.513Z,80.35
2018-08-06T04:58:08.509Z,80.55
2018-08-06T04:59:08.521Z,80.07
2018-08-06T05:00:08.501Z,79.88
2018-08-06T05:01:08.498Z,79.78
2018-08-06T05:02:08.495Z,79.78
2018-08-06T05:03:08.494Z,79.88
2018-08-06T05:04:08.495Z,80.07
2018-08-06T05:05:08.487Z,79.78
2018-08-06T05:06:08.482Z,79.78
2018-08-06T05:07:08.486Z,79.44
2018-08-06T05:08:08.485Z,79.72
2018-08-06T05:09:08.478Z,78.96
2018-08-06T05:10:08.484Z,78.86
2018-08-06T05:11:08.471Z,78.67
2018-08-06T05:12:08.470Z,78.77
2018-08-06T05:13:08.495Z,78.38
2018-08-06T05:14:08.492Z,78.19
2018-08-06T05:15:08.461Z,78.47
2018-08-06T05:16:08.460Z,78.47
2018-08-06T05:17:08.462Z,78.77
2018-08-06T05:18:08.457Z,78.38
2018-08-06T05:19:08.454Z,78.00
2018-08-06T05:20:08.448Z,78.09
2018-08-06T05:21:08.453Z,77.84
2018-08-06T05:22:08.453Z,77.65
2018-08-06T05:23:08.453Z,76.98
2018-08-06T05:24:08.443Z,77.08
2018-08-06T05:25:08.455Z,76.59
2018-08-06T05:26:08.439Z,76.50
2018-08-06T05:27:08.487Z,76.64
2018-08-06T05:28:08.446Z,75.96
2018-08-06T05:29:08.441Z,75.77
2018-08-06T05:30:08.435Z,75.67
2018-08-06T05:31:08.437Z,76.15
2018-08-06T05:32:08.434Z,75.57
2018-08-06T05:33:08.426Z,76.06
2018-08-06T05:34:08.429Z,75.77
2018-08-06T05:35:08.431Z,76.00
2018-08-06T05:36:08.429Z,75.90
2018-08-06T05:37:08.436Z,75.13
2018-08-06T05:38:08.427Z,75.32
2018-08-06T05:39:08.426Z,74.08
2018-08-06T05:40:08.617Z,74.65
2018-08-06T05:41:08.424Z,74.46
2018-08-06T05:42:08.426Z,74.60
2018-08-06T05:43:08.422Z,73.92
2018-08-06T05:44:08.422Z,73.54
2018-08-06T05:45:08.426Z,73.73
2018-08-06T05:46:08.417Z,73.19
2018-08-06T05:47:08.417Z,73.38
2018-08-06T05:48:08.430Z,73.19
2018-08-06T05:49:08.420Z,73.28
2018-08-06T05:50:08.419Z,72.52
2018-08-06T05:51:08.417Z,72.32
2018-08-06T05:52:08.420Z,72.23
2018-08-06T05:53:08.415Z,72.17
2018-08-06T05:54:08.420Z,72.07
2018-08-06T05:55:08.418Z,71.69
2018-08-06T05:56:08.431Z,71.40
2018-08-06T05:57:08.422Z,71.11
2018-08-06T05:58:08.425Z,71.11
2018-08-06T05:59:08.430Z,71.30
2018-08-06T06:00:08.423Z,70.95
2018-08-06T06:01:08.422Z,70.37
2018-08-06T06:02:08.420Z,70.28
2018-08-06T06:03:08.426Z,69.79
2018-08-06T06:04:08.425Z,70.56
2018-08-06T06:05:08.429Z,70.12
2018-08-06T06:06:08.427Z,69.45
2018-08-06T06:07:08.440Z,69.35
2018-08-06T06:08:08.454Z,69.73
2018-08-06T06:09:08.449Z,69.93
2018-08-06T06:10:08.434Z,69.83
2018-08-06T06:11:08.456Z,69.25
2018-08-06T06:12:08.448Z,69.29
2018-08-06T06:13:08.439Z,68.42
2018-08-06T06:14:08.442Z,69.03
2018-08-06T06:15:08.449Z,67.68
2018-08-06T06:16:08.445Z,66.62
2018-08-06T06:17:08.449Z,66.43
2018-08-06T06:18:08.451Z,66.72
2018-08-06T06:19:08.471Z,66.85
2018-08-06T06:20:08.460Z,66.94
2018-08-06T06:21:08.450Z,65.40
2018-08-06T06:22:08.456Z,65.24
2018-08-06T06:23:08.461Z,64.47
2018-08-06T06:24:08.462Z,64.37
2018-08-06T06:25:08.468Z,64.37
2018-08-06T06:26:08.473Z,63.98
2018-08-06T06:27:08.480Z,63.60
2018-08-06T06:28:08.480Z,62.66
2018-08-06T06:29:08.483Z,61.38
2018-08-06T06:30:08.489Z,63.18
2018-08-06T06:31:08.495Z,64.34
2018-08-06T06:32:08.508Z,64.43
2018-08-06T06:33:08.497Z,65.08
2018-08-06T06:34:08.493Z,65.75
2018-08-06T06:35:08.495Z,66.04
2018-08-06T06:36:08.496Z,65.50
2018-08-06T06:37:08.496Z,65.01
2018-08-06T06:38:08.508Z,64.86
2018-08-06T06:39:08.514Z,64.08
2018-08-06T06:40:08.509Z,62.76
2018-08-06T06:41:08.508Z,62.28
2018-08-06T06:42:08.515Z,61.31
2018-08-06T06:43:08.519Z,61.12
2018-08-06T06:44:08.516Z,61.02
2018-08-06T06:45:08.520Z,60.86
2018-08-06T06:46:08.525Z,61.05
2018-08-06T06:47:08.521Z,60.57
2018-08-06T06:48:08.524Z,60.76
2018-08-06T06:49:08.535Z,60.67
2018-08-06T06:50:08.537Z,59.41
2018-08-06T06:51:08.539Z,60.57
2018-08-06T06:52:08.539Z,61.05
2018-08-06T06:53:08.560Z,59.67
2018-08-06T06:54:08.537Z,60.25
2018-08-06T06:55:08.553Z,60.47
2018-08-06T06:56:08.548Z,60.93
2018-08-06T06:57:08.554Z,60.57
2018-08-06T06:58:08.550Z,59.41
2018-08-06T06:59:08.553Z,58.45
2018-08-06T07:00:08.560Z,58.73
2018-08-06T07:01:08.561Z,58.67
2018-08-06T07:02:08.567Z,58.76
2018-08-06T07:03:09.503Z,58.18
2018-08-06T07:04:08.575Z,57.70
2018-08-06T07:05:08.567Z,57.79
2018-08-06T07:06:08.579Z,57.99
2018-08-06T07:07:08.580Z,58.25
2018-08-06T07:08:08.581Z,58.37
2018-08-06T07:09:08.583Z,57.70
2018-08-06T07:10:08.589Z,58.37
2018-08-06T07:11:08.589Z,58.09
2018-08-06T07:12:08.598Z,57.89
2018-08-06T07:13:08.597Z,57.79
2018-08-06T07:14:08.675Z,57.82
2018-08-06T07:15:08.614Z,56.98
2018-08-06T07:16:08.614Z,56.60
2018-08-06T07:17:08.609Z,55.73
2018-08-06T07:18:08.612Z,55.63
2018-08-06T07:19:08.617Z,54.88
2018-08-06T07:20:08.661Z,54.13
2018-08-06T07:21:08.623Z,52.71
2018-08-06T07:22:08.637Z,52.06
2018-08-06T07:23:08.635Z,50.31
2018-08-06T07:24:08.642Z,49.61
2018-08-06T07:25:08.657Z,50.57
2018-08-06T07:26:08.714Z,50.74
2018-08-06T07:27:08.646Z,51.72
2018-08-06T07:28:08.650Z,52.29
2018-08-06T07:29:08.655Z,52.80
2018-08-06T07:30:08.662Z,51.16
2018-08-06T07:31:08.662Z,50.57
2018-08-06T07:32:08.670Z,49.90
2018-08-06T07:33:08.675Z,50.29
2018-08-06T07:34:08.681Z,51.09
2018-08-06T07:35:08.687Z,51.57
2018-08-06T07:36:08.696Z,50.12
2018-08-06T07:37:08.703Z,49.24
2018-08-06T07:38:08.706Z,49.92
2018-08-06T07:39:08.706Z,50.12
2018-08-06T07:40:08.777Z,51.21
2018-08-06T07:41:08.720Z,50.16
2018-08-06T07:42:08.722Z,49.71
2018-08-06T07:43:08.738Z,49.41
2018-08-06T07:44:08.762Z,47.76
2018-08-06T07:45:10.621Z,47.88
2018-08-06T07:46:08.748Z,46.62
2018-08-06T07:47:08.798Z,45.55
2018-08-06T07:48:08.758Z,46.60
2018-08-06T07:49:08.759Z,46.79
2018-08-06T07:50:08.779Z,46.60
2018-08-06T07:51:08.810Z,46.50
2018-08-06T07:52:08.842Z,46.60
2018-08-06T07:53:08.792Z,47.18
2018-08-06T07:54:08.816Z,47.76
2018-08-06T07:55:08.818Z,47.30
2018-08-06T07:56:08.867Z,46.42
2018-08-06T07:57:08.866Z,46.52
2018-08-06T07:58:08.898Z,45.65
2018-08-06T07:59:09.660Z,45.77
2018-08-06T08:00:08.837Z,47.13
2018-08-06T08:01:09.868Z,45.40
2018-08-06T08:02:08.863Z,43.96
2018-08-06T08:03:08.928Z,42.99
2018-08-06T08:04:09.175Z,43.87
2018-08-06T08:05:08.889Z,44.18
2018-08-06T08:06:08.906Z,42.35
2018-08-06T08:07:08.899Z,41.11
2018-08-06T08:08:08.982Z,40.66
2018-08-06T08:09:09.026Z,39.22
2018-08-06T08:10:08.931Z,39.12
2018-08-06T08:11:09.143Z,39.31
2018-08-06T08:12:08.925Z,38.04
2018-08-06T08:13:09.095Z,38.10
2018-08-06T08:14:08.934Z,39.08
2018-08-06T08:15:09.065Z,39.26
2018-08-06T08:16:08.962Z,40.31
2018-08-06T08:17:08.990Z,40.23
2018-08-06T08:18:08.963Z,39.16
2018-08-06T08:19:09.213Z,40.01
2018-08-06T08:20:09.106Z,39.70
2018-08-06T08:21:09.524Z,40.66
2018-08-06T08:22:09.034Z,41.46
2018-08-06T08:23:09.004Z,42.04
2018-08-06T08:24:09.019Z,41.94
2018-08-06T08:25:09.026Z,42.04
2018-08-06T08:26:09.027Z,41.01
2018-08-06T08:27:09.037Z,40.37
2018-08-06T08:28:09.070Z,39.22
2018-08-06T08:29:09.051Z,39.14
2018-08-06T08:30:09.064Z,38.55
2018-08-06T08:31:09.094Z,37.96
2018-08-06T08:32:09.078Z,36.70
2018-08-06T08:33:09.089Z,37.07
2018-08-06T08:34:09.184Z,37.63
2018-08-06T08:35:09.103Z,38.51
2018-08-06T08:36:09.112Z,38.51
2018-08-06T08:37:09.122Z,37.93
2018-08-06T08:38:09.146Z,38.32
2018-08-06T08:39:09.162Z,37.52
2018-08-06T08:40:09.170Z,37.81
2018-08-06T08:41:09.157Z,38.40
2018-08-06T08:42:09.166Z,36.78
2018-08-06T08:43:09.173Z,35.84
2018-08-06T08:44:09.191Z,35.07
2018-08-06T08:45:09.218Z,34.68
2018-08-06T08:46:09.210Z,34.00
2018-08-06T08:47:09.209Z,33.01
2018-08-06T08:48:09.217Z,33.87
2018-08-06T08:49:09.230Z,35.12
2018-08-06T08:50:09.249Z,35.31
2018-08-06T08:51:09.246Z,34.92
2018-08-06T08:52:09.265Z,35.71
2018-08-06T08:53:09.261Z,36.39
2018-08-06T08:54:09.272Z,36.18
2018-08-06T08:55:09.279Z,35.98
2018-08-06T08:56:09.296Z,36.19
2018-08-06T08:57:09.336Z,36.58
2018-08-06T08:58:09.316Z,36.99
2018-08-06T08:59:09.337Z,35.14
2018-08-06T09:00:09.337Z,35.90
2018-08-06T09:01:09.341Z,35.53
2018-08-06T09:02:09.359Z,35.04
2018-08-06T09:03:09.359Z,34.65
2018-08-06T09:04:09.377Z,35.33
2018-08-06T09:05:09.384Z,36.23
2018-08-06T09:06:09.414Z,35.25
2018-08-06T09:07:09.404Z,34.19
2018-08-06T09:08:09.428Z,33.79
2018-08-06T09:09:09.418Z,34.14
2018-08-06T09:10:10.098Z,35.10
2018-08-06T09:11:09.433Z,35.88
2018-08-06T09:12:09.467Z,35.88
2018-08-06T09:13:09.460Z,35.88
2018-08-06T09:14:09.507Z,35.69
2018-08-06T09:15:09.476Z,35.39
2018-08-06T09:16:09.517Z,37.05
2018-08-06T09:17:09.519Z,36.58
2018-08-06T09:18:09.513Z,36.90
2018-08-06T09:19:09.520Z,34.67
2018-08-06T09:20:09.555Z,34.09
2018-08-06T09:21:09.590Z,33.41
2018-08-06T09:22:09.551Z,34.19
2018-08-06T09:23:09.571Z,33.02
2018-08-06T09:24:09.568Z,33.02
2018-08-06T09:25:09.581Z,34.50
2018-08-06T09:26:09.585Z,32.95
2018-08-06T09:27:09.606Z,31.23
2018-08-06T09:28:09.603Z,30.77
2018-08-06T09:29:09.617Z,29.22
2018-08-06T09:30:09.774Z,28.45
2018-08-06T09:31:09.659Z,28.47
2018-08-06T09:32:09.645Z,27.11
2018-08-06T09:33:09.668Z,26.45
2018-08-06T09:34:09.667Z,25.74
2018-08-06T09:35:09.686Z,25.84
2018-08-06T09:36:09.689Z,26.05
2018-08-06T09:37:09.699Z,26.25
2018-08-06T09:38:09.715Z,26.25
2018-08-06T09:39:09.720Z,25.08
2018-08-06T09:40:09.766Z,24.98
2018-08-06T09:41:09.739Z,25.18
2018-08-06T09:42:09.759Z,24.68
2018-08-06T09:43:09.764Z,25.63
2018-08-06T09:44:09.768Z,26.81
2018-08-06T09:45:09.787Z,27.02
2018-08-06T09:46:09.807Z,25.95
2018-08-06T09:47:09.806Z,25.46
2018-08-06T09:48:09.814Z,25.77
2018-08-06T09:49:09.827Z,24.98
2018-08-06T09:50:09.835Z,24.68
2018-08-06T09:51:09.854Z,24.97
2018-08-06T09:52:09.870Z,25.07
2018-08-06T09:53:09.888Z,24.49
2018-08-06T09:54:09.881Z,24.11
2018-08-06T09:55:09.896Z,23.71
2018-08-06T09:56:09.923Z,23.41
2018-08-06T09:57:09.970Z,23.30
2018-08-06T09:58:09.932Z,24.57
2018-08-06T09:59:09.952Z,24.84
2018-08-06T10:00:09.954Z,25.90
2018-08-06T10:01:09.965Z,27.08
2018-08-06T10:02:09.973Z,27.57
2018-08-06T10:03:12.986Z,27.09
2018-08-06T10:04:12.405Z,26.52
2018-08-06T10:05:12.717Z,26.14
2018-08-06T10:06:10.121Z,25.65
2018-08-06T10:07:11.089Z,26.25
2018-08-06T10:08:14.445Z,24.95
2018-08-06T10:09:12.980Z,25.04
2018-08-06T10:10:13.879Z,25.65
2018-08-06T10:11:10.180Z,24.98
2018-08-06T10:12:10.157Z,24.59
2018-08-06T10:13:10.265Z,24.21
2018-08-06T10:14:10.177Z,24.21
2018-08-06T10:15:10.310Z,23.22
2018-08-06T10:16:10.399Z,24.62
2018-08-06T10:17:10.156Z,22.96
2018-08-06T10:18:10.182Z,23.46
2018-08-06T10:19:10.274Z,22.47
2018-08-06T10:20:10.185Z,22.75
2018-08-06T10:21:10.200Z,23.63
2018-08-06T10:22:10.423Z,23.43
2018-08-06T10:23:10.366Z,23.15
2018-08-06T10:24:10.328Z,23.16
2018-08-06T10:25:10.299Z,23.05
2018-08-06T10:26:10.355Z,24.41
2018-08-06T10:27:10.445Z,23.15
2018-08-06T10:28:10.479Z,22.86
2018-08-06T10:29:10.347Z,23.07
2018-08-06T10:30:10.460Z,23.07
2018-08-06T10:31:10.321Z,21.89
2018-08-06T10:32:10.347Z,22.38
2018-08-06T10:33:10.368Z,22.38
2018-08-06T10:34:12.653Z,21.50
2018-08-06T10:35:10.583Z,22.27
2018-08-06T10:36:10.590Z,23.16
2018-08-06T10:37:10.497Z,23.04
2018-08-06T10:38:10.493Z,23.32
2018-08-06T10:39:10.438Z,23.89
2018-08-06T10:40:10.436Z,24.66
2018-08-06T10:41:10.440Z,25.84
2018-08-06T10:42:10.468Z,24.69
2018-08-06T10:43:10.466Z,23.72
2018-08-06T10:44:10.513Z,23.06
2018-08-06T10:45:10.519Z,22.38
2018-08-06T10:46:10.502Z,21.60
2018-08-06T10:47:10.526Z,21.53
2018-08-06T10:48:10.532Z,21.03
2018-08-06T10:49:10.538Z,21.44
2018-08-06T10:50:10.557Z,21.24
2018-08-06T10:51:10.572Z,21.24
2018-08-06T10:52:10.596Z,20.86
2018-08-06T10:53:10.594Z,20.56
2018-08-06T10:54:10.602Z,21.15
2018-08-06T10:55:10.619Z,21.15
2018-08-06T10:56:10.629Z,21.05
2018-08-06T10:57:10.642Z,20.54
2018-08-06T10:58:10.663Z,20.52
2018-08-06T10:59:10.677Z,21.29
2018-08-06T11:00:10.681Z,22.73
2018-08-06T11:01:10.701Z,23.41
2018-08-06T11:02:10.705Z,23.97
2018-08-06T11:03:10.717Z,25.74
2018-08-06T11:04:10.734Z,24.86
2018-08-06T11:05:10.740Z,24.19
2018-08-06T11:06:10.762Z,23.54
2018-08-06T11:07:10.769Z,23.27
2018-08-06T11:08:10.777Z,22.00
2018-08-06T11:09:10.793Z,22.41
2018-08-06T11:10:10.804Z,21.61
2018-08-06T11:11:10.818Z,22.09
2018-08-06T11:12:10.829Z,21.70
2018-08-06T11:13:10.929Z,21.59
2018-08-06T11:14:10.955Z,22.56
2018-08-06T11:15:10.866Z,23.26
2018-08-06T11:16:10.904Z,22.67
2018-08-06T11:17:10.949Z,22.95
2018-08-06T11:18:11.115Z,22.77
2018-08-06T11:19:11.156Z,23.55
2018-08-06T11:20:10.968Z,22.49
2018-08-06T11:21:11.732Z,21.62
2018-08-06T11:22:10.966Z,21.61
2018-08-06T11:23:11.002Z,21.51
2018-08-06T11:24:11.146Z,22.30
2018-08-06T11:25:10.993Z,22.89
2018-08-06T11:26:11.061Z,23.18
2018-08-06T11:27:11.020Z,22.49
2018-08-06T11:28:11.037Z,21.04
2018-08-06T11:29:11.043Z,20.46
2018-08-06T11:30:11.064Z,20.08
2018-08-06T11:31:11.071Z,19.68
2018-08-06T11:32:11.119Z,20.17
2018-08-06T11:33:11.106Z,20.46
2018-08-06T11:34:11.153Z,20.17
2018-08-06T11:35:11.121Z,19.98
2018-08-06T11:36:11.501Z,19.30
2018-08-06T11:37:11.727Z,19.40
2018-08-06T11:38:11.193Z,19.40
2018-08-06T11:39:11.220Z,19.98
2018-08-06T11:40:11.255Z,19.46
2018-08-06T11:41:11.275Z,20.64
2018-08-06T11:42:11.269Z,22.11
2018-08-06T11:43:11.330Z,21.53
2018-08-06T11:44:11.238Z,20.94
2018-08-06T11:45:11.245Z,20.55
2018-08-06T11:46:11.277Z,20.45
2018-08-06T11:47:11.277Z,20.54
2018-08-06T11:48:11.311Z,21.13
2018-08-06T11:49:11.307Z,21.14
2018-08-06T11:50:11.316Z,20.75
2018-08-06T11:51:11.329Z,20.75
2018-08-06T11:52:11.340Z,21.13
2018-08-06T11:53:11.377Z,21.91
2018-08-06T11:54:11.395Z,21.12
2018-08-06T11:55:11.446Z,21.21
2018-08-06T11:56:11.404Z,22.09
2018-08-06T11:57:11.470Z,21.59
2018-08-06T11:58:11.435Z,21.98
2018-08-06T11:59:11.479Z,22.56
2018-08-06T12:00:11.444Z,21.78
2018-08-06T12:01:11.457Z,22.77
2018-08-06T12:02:11.467Z,22.00
2018-08-06T12:03:11.498Z,21.72
2018-08-06T12:04:11.507Z,20.45
2018-08-06T12:05:11.530Z,19.38
2018-08-06T12:06:11.521Z,19.10
2018-08-06T12:07:13.189Z,19.01
2018-08-06T12:08:12.192Z,18.73
2018-08-06T12:09:11.565Z,17.99
2018-08-06T12:10:11.598Z,19.15
2018-08-06T12:11:11.638Z,20.21
2018-08-06T12:12:11.605Z,21.28
2018-08-06T12:13:11.615Z,22.15
2018-08-06T12:14:11.646Z,22.23
2018-08-06T12:15:11.671Z,23.02
2018-08-06T12:16:11.655Z,23.13
2018-08-06T12:17:11.676Z,22.75
2018-08-06T12:18:11.690Z,22.38
2018-08-06T12:19:11.713Z,21.42
2018-08-06T12:20:11.724Z,20.54
2018-08-06T12:21:11.743Z,20.15
2018-08-06T12:22:11.748Z,19.96
2018-08-06T12:23:11.761Z,19.67
2018-08-06T12:24:11.755Z,19.28
2018-08-06T12:25:11.770Z,19.78
2018-08-06T12:26:11.801Z,20.06
2018-08-06T12:27:11.796Z,19.57
2018-08-06T12:28:11.814Z,19.95
2018-08-06T12:29:11.851Z,20.06
2018-08-06T12:30:11.832Z,19.95
2018-08-06T12:31:11.844Z,20.73
2018-08-06T12:32:11.871Z,21.03
2018-08-06T12:33:11.887Z,21.03
2018-08-06T12:34:11.880Z,21.13
2018-08-06T12:35:11.896Z,20.94
2018-08-06T12:36:11.921Z,20.73
2018-08-06T12:37:11.910Z,21.03
2018-08-06T12:38:11.976Z,18.96
2018-08-06T12:39:11.938Z,18.86
2018-08-06T12:40:11.951Z,18.87
2018-08-06T12:41:11.965Z,18.68
2018-08-06T12:42:11.976Z,18.29
2018-08-06T12:43:11.983Z,18.76
2018-08-06T12:44:12.034Z,18.84
2018-08-06T12:45:12.007Z,19.52
2018-08-06T12:46:12.037Z,19.40
2018-08-06T12:47:12.031Z,20.38
2018-08-06T12:48:12.041Z,20.76
2018-08-06T12:49:12.062Z,21.17
2018-08-06T12:50:12.071Z,20.98
2018-08-06T12:51:12.078Z,21.37
2018-08-06T12:52:12.112Z,21.00